createdAt,value
2017-11-09T00:09:30.614Z,60.45
2017-11-09T00:19:34.661Z,63.63
2017-11-09T00:29:37.856Z,54.57
2017-11-09T00:39:41.059Z,60.57
2017-11-09T00:49:45.035Z,52.97
2017-11-09T00:59:48.275Z,72.13
2017-11-09T01:09:51.475Z,60.53
2017-11-09T01:19:54.847Z,65.47
2017-11-09T01:29:58.094Z,49.70
2017-11-09T01:40:01.374Z,55.90
2017-11-09T01:50:04.547Z,55.05
2017-11-09T02:00:08.488Z,69.00
2017-11-09T02:10:11.688Z,77.23
2017-11-09T02:20:14.856Z,84.60
2017-11-09T02:30:18.032Z,79.03
2017-11-09T02:40:21.283Z,73.53
2017-11-09T02:50:24.468Z,94.67
2017-11-09T03:00:27.631Z,90.70
2017-11-09T03:10:31.614Z,109.97
2017-11-09T03:20:34.817Z,103.73
2017-11-09T03:30:38.756Z,94.87
2017-11-09T03:40:41.948Z,85.37
2017-11-09T03:50:45.146Z,88.07
2017-11-09T04:00:49.088Z,67.87
2017-11-09T04:10:52.276Z,73.10
2017-11-09T04:20:55.486Z,61.83
2017-11-09T04:30:59.540Z,86.33
2017-11-09T04:41:03.515Z,70.87
2017-11-09T04:51:06.698Z,74.60
2017-11-09T05:01:09.895Z,67.37
2017-11-09T05:11:13.088Z,79.53
2017-11-09T05:21:16.300Z,86.13
2017-11-09T05:31:19.491Z,89.60
2017-11-09T05:41:22.699Z,154.43
2017-11-09T05:51:25.912Z,152.93
2017-11-09T06:01:29.113Z,161.23
2017-11-09T06:11:32.287Z,140.23
2017-11-09T06:21:35.483Z,159.60
2017-11-09T06:31:39.444Z,153.47
2017-11-09T06:41:42.656Z,204.47
2017-11-09T06:51:45.851Z,207.07
2017-11-09T07:01:49.061Z,170.53
2017-11-09T07:12:05.243Z,189.37
2017-11-09T07:22:09.386Z,192.87
2017-11-09T07:32:12.586Z,162.57
2017-11-09T07:42:15.845Z,145.73
2017-11-09T07:52:19.168Z,125.87
2017-11-09T08:02:22.384Z,141.87
2017-11-09T08:12:25.697Z,116.63
2017-11-09T08:22:28.884Z,97.33
2017-11-09T08:32:37.015Z,91.80
2017-11-09T08:42:40.985Z,84.87
2017-11-09T08:52:44.959Z,75.63
2017-11-09T09:02:48.349Z,75.17
2017-11-09T09:12:51.543Z,49.20
2017-11-09T09:22:54.756Z,46.77
2017-11-09T09:33:02.238Z,48.47
2017-11-09T09:43:05.437Z,38.67
2017-11-09T09:53:09.397Z,55.97
2017-11-09T10:03:12.595Z,63.47
2017-11-09T10:13:15.787Z,51.63
2017-11-09T10:23:19.036Z,51.15
2017-11-09T10:33:22.251Z,49.67
2017-11-09T10:43:26.211Z,57.63
2017-11-09T10:53:29.408Z,34.47
2017-11-09T11:03:32.607Z,38.63
2017-11-09T11:13:35.800Z,52.63
2017-11-09T11:23:39.759Z,58.17
2017-11-09T11:33:43.723Z,69.33
2017-11-09T11:43:47.928Z,76.33
2017-11-09T11:53:51.154Z,75.28
2017-11-09T12:03:55.221Z,72.27
2017-11-09T12:13:58.431Z,64.00
2017-11-09T12:24:01.694Z,57.27
2017-11-09T12:34:05.188Z,55.10
2017-11-09T12:44:08.401Z,51.00
2017-11-09T12:54:12.394Z,57.97
2017-11-09T13:04:15.612Z,81.93
2017-11-09T13:14:18.902Z,85.43
2017-11-09T13:24:22.586Z,64.50
2017-11-09T13:34:25.807Z,78.80
2017-11-09T13:44:29.049Z,77.60
2017-11-09T13:54:32.239Z,82.65
2017-11-09T14:04:36.275Z,90.77
2017-11-09T14:14:39.578Z,90.83
2017-11-09T14:24:42.776Z,73.60
2017-11-09T14:34:46.769Z,89.17
2017-11-09T14:44:49.989Z,83.23
2017-11-09T14:54:53.188Z,82.23
2017-11-09T15:04:56.382Z,84.53
2017-11-09T15:14:59.606Z,83.47
2017-11-09T15:25:02.853Z,79.47
2017-11-09T15:35:06.061Z,85.60
2017-11-09T15:45:10.032Z,97.30
2017-11-09T15:55:13.376Z,80.33
2017-11-09T16:05:16.604Z,66.00
2017-11-09T16:15:19.796Z,66.25
2017-11-09T16:25:23.069Z,59.80
2017-11-09T16:35:26.296Z,50.30
2017-11-09T16:45:30.296Z,61.77
2017-11-09T16:55:33.546Z,66.37
2017-11-09T17:05:36.844Z,70.37
2017-11-09T17:15:40.831Z,64.85
2017-11-09T17:25:44.144Z,66.27
2017-11-09T17:35:48.185Z,62.10
2017-11-09T17:45:51.464Z,67.47
2017-11-09T17:55:54.695Z,74.83
2017-11-09T18:05:57.920Z,93.53
2017-11-09T18:16:01.912Z,88.57
2017-11-09T18:26:05.111Z,88.10
2017-11-09T18:36:08.326Z,88.70
2017-11-09T18:48:47.223Z,67.50
2017-11-09T19:00:23.439Z,67.03
2017-11-09T19:10:27.453Z,65.40
2017-11-09T19:20:30.669Z,49.03
2017-11-09T19:30:33.919Z,50.70
2017-11-09T19:40:37.393Z,44.00
2017-11-09T19:50:41.392Z,47.13
2017-11-09T20:00:44.660Z,43.33
2017-11-09T20:10:48.072Z,45.83
2017-11-09T20:20:51.308Z,40.57
2017-11-09T20:30:54.518Z,44.13
2017-11-09T20:40:57.748Z,44.97
2017-11-09T20:51:01.122Z,43.30
2017-11-09T21:01:05.239Z,53.80
2017-11-09T21:11:08.583Z,46.28
2017-11-09T21:21:11.863Z,46.42
2017-11-09T21:31:15.880Z,49.70
2017-11-09T21:41:19.095Z,44.87
2017-11-09T21:51:22.348Z,42.93
2017-11-09T22:01:25.674Z,48.03
2017-11-09T22:11:28.879Z,47.27
2017-11-09T22:21:32.120Z,41.77
2017-11-09T22:31:35.342Z,46.30
2017-11-09T22:41:38.625Z,43.80
2017-11-09T22:51:42.271Z,53.67
2017-11-09T23:01:45.661Z,56.20
2017-11-09T23:11:48.839Z,46.17
2017-11-09T23:21:52.052Z,47.17
2017-11-09T23:31:56.059Z,45.92
2017-11-09T23:41:59.283Z,48.35
2017-11-09T23:52:02.480Z,64.27
